Time;durP1;ratioP1;P1;durP2;ratioP2;P2;SDS_P1;SDS_P2;PMS_P1;PMS_P2;Temp;Humidity;BMP_temperature;BMP_pressure;BME280_temperature;BME280_humidity;BME280_pressure;Samples;Min_cycle;Max_cycle;Signal;HPM_P1;HPM_P2
2022/03/11 00:00:53;;;;;;;18.42;9.60;;;3.10;43.80;;;;;;5053579;28;20033;-63
2022/03/11 00:03:21;;;;;;;18.90;9.73;;;3.00;44.20;;;;;;5053895;28;20029;-63
2022/03/11 00:05:47;;;;;;;17.08;9.85;;;2.90;44.50;;;;;;5035156;28;20029;-64
2022/03/11 00:08:13;;;;;;;21.65;10.77;;;2.80;44.60;;;;;;5053397;28;20036;-62
2022/03/11 00:10:40;;;;;;;18.73;9.65;;;2.80;44.80;;;;;;5052966;28;20025;-63
2022/03/11 00:13:06;;;;;;;23.50;9.55;;;2.70;45.30;;;;;;5035858;28;20489;-63
2022/03/11 00:15:31;;;;;;;17.73;9.68;;;2.70;45.40;;;;;;5053728;28;20033;-63
2022/03/11 00:17:57;;;;;;;18.65;9.68;;;2.70;45.40;;;;;;5052722;28;20092;-63
2022/03/11 00:20:24;;;;;;;17.90;9.40;;;2.60;45.80;;;;;;5034916;28;20041;-62
2022/03/11 00:22:51;;;;;;;19.42;9.32;;;2.60;45.80;;;;;;5052437;28;20025;-64
2022/03/11 00:25:19;;;;;;;19.35;10.15;;;2.60;45.50;;;;;;5053109;28;20125;-64
2022/03/11 00:27:45;;;;;;;18.65;10.05;;;2.60;45.60;;;;;;5034567;28;20120;-63
2022/03/11 00:30:11;;;;;;;19.70;9.95;;;2.60;45.90;;;;;;5035579;28;20021;-65
2022/03/11 00:32:38;;;;;;;17.92;10.20;;;2.50;45.80;;;;;;5053117;28;20469;-68
2022/03/11 00:35:07;;;;;;;21.02;9.73;;;2.50;46.00;;;;;;5053408;28;20071;-63
2022/03/11 00:37:33;;;;;;;18.60;9.82;;;2.40;46.10;;;;;;5052860;28;20031;-63
2022/03/11 00:39:58;;;;;;;23.27;10.18;;;2.40;46.10;;;;;;5034742;28;20112;-63
2022/03/11 00:42:24;;;;;;;17.50;9.95;;;2.40;46.30;;;;;;5052982;28;20029;-64
2022/03/11 00:44:50;;;;;;;19.23;8.98;;;2.30;46.40;;;;;;5034651;28;20033;-63
2022/03/11 00:47:15;;;;;;;18.60;8.95;;;2.30;46.40;;;;;;5052679;28;20113;-62
2022/03/11 00:49:41;;;;;;;17.98;9.23;;;2.30;46.50;;;;;;5034649;28;20053;-63
2022/03/11 00:52:07;;;;;;;22.98;9.50;;;2.30;46.30;;;;;;5035097;28;20470;-64
2022/03/11 00:54:33;;;;;;;16.50;9.88;;;2.40;46.50;;;;;;5034865;28;20024;-63
2022/03/11 00:56:58;;;;;;;19.92;10.05;;;2.40;47.00;;;;;;5052138;28;20099;-63
2022/03/11 00:59:24;;;;;;;19.50;9.35;;;2.40;46.20;;;;;;5052652;28;20519;-63
2022/03/11 01:01:50;;;;;;;15.60;8.65;;;2.40;46.20;;;;;;5051874;28;20522;-64
2022/03/11 01:04:15;;;;;;;14.65;9.07;;;2.40;46.30;;;;;;5052798;28;20021;-64
2022/03/11 01:06:41;;;;;;;19.02;10.55;;;2.30;46.20;;;;;;5034167;28;20082;-66
2022/03/11 01:09:08;;;;;;;20.40;9.02;;;2.30;46.30;;;;;;5052574;28;20057;-63
2022/03/11 01:11:34;;;;;;;19.73;9.80;;;2.40;46.00;;;;;;5034521;28;20025;-64
2022/03/11 01:14:00;;;;;;;15.07;8.68;;;2.30;45.80;;;;;;5051697;28;20351;-63
2022/03/11 01:16:27;;;;;;;15.05;9.57;;;2.30;46.00;;;;;;5034383;28;20108;-63
2022/03/11 01:18:53;;;;;;;13.48;8.55;;;2.30;45.80;;;;;;5051875;28;20478;-64
2022/03/11 01:21:18;;;;;;;20.40;9.15;;;2.40;45.70;;;;;;5052440;28;20185;-62
2022/03/11 01:23:44;;;;;;;21.48;8.73;;;2.30;45.70;;;;;;5051536;28;20017;-64
2022/03/11 01:26:12;;;;;;;15.45;8.40;;;2.40;45.70;;;;;;5033939;28;20035;-63
2022/03/11 01:28:41;;;;;;;13.90;9.00;;;2.40;45.40;;;;;;5052348;28;20040;-64
2022/03/11 01:31:11;;;;;;;12.63;7.95;;;2.30;45.10;;;;;;5052064;28;20017;-64
2022/03/11 01:33:39;;;;;;;13.43;8.15;;;2.30;45.30;;;;;;5034361;28;20087;-64
2022/03/11 01:36:05;;;;;;;13.65;7.80;;;2.30;45.10;;;;;;5033574;28;20028;-64
2022/03/11 01:38:31;;;;;;;15.43;8.50;;;2.20;45.00;;;;;;5051919;28;20147;-63
2022/03/11 01:40:57;;;;;;;18.10;7.90;;;2.10;45.00;;;;;;5051210;28;20466;-63
2022/03/11 01:43:22;;;;;;;12.45;7.28;;;2.10;45.00;;;;;;5033922;28;20074;-63
2022/03/11 01:45:48;;;;;;;14.32;7.90;;;2.00;44.90;;;;;;5051091;28;20040;-63
2022/03/11 01:48:14;;;;;;;17.48;7.05;;;2.00;44.70;;;;;;5051854;28;20154;-62
2022/03/11 01:50:41;;;;;;;15.23;7.90;;;1.90;44.90;;;;;;5052015;28;20025;-63
2022/03/11 01:53:11;;;;;;;13.98;7.43;;;1.90;45.00;;;;;;5051784;28;20029;-63
2022/03/11 01:55:38;;;;;;;12.07;7.15;;;1.80;44.90;;;;;;5051991;28;20128;-63
2022/03/11 01:58:05;;;;;;;11.90;7.28;;;1.90;44.90;;;;;;5050747;28;20020;-63
2022/03/11 02:00:35;;;;;;;12.60;6.97;;;1.90;44.70;;;;;;5051670;28;20024;-64
2022/03/11 02:03:01;;;;;;;13.07;6.28;;;1.90;44.10;;;;;;5051203;28;20017;-63
2022/03/11 02:05:28;;;;;;;10.38;6.72;;;1.90;44.20;;;;;;5051619;28;20025;-63
2022/03/11 02:07:54;;;;;;;12.15;6.60;;;1.90;43.90;;;;;;5033290;28;20029;-63
2022/03/11 02:10:20;;;;;;;10.13;6.28;;;1.80;44.00;;;;;;5051435;28;20096;-63
2022/03/11 02:12:46;;;;;;;11.05;6.43;;;1.70;44.10;;;;;;5051464;28;20138;-66
2022/03/11 02:15:11;;;;;;;11.25;6.10;;;1.60;44.10;;;;;;5033541;28;20090;-63
2022/03/11 02:20:21;;;;;;;11.77;5.72;;;1.60;44.20;;;;;;5051262;28;20120;-62
2022/03/11 02:22:50;;;;;;;9.55;6.20;;;1.70;44.30;;;;;;5050942;28;20052;-67
2022/03/11 02:25:16;;;;;;;9.57;6.28;;;1.60;44.10;;;;;;5033760;28;20422;-63
2022/03/11 02:27:46;;;;;;;10.68;6.50;;;1.50;44.30;;;;;;5033620;28;20029;-64
2022/03/11 02:30:19;;;;;;;9.15;6.22;;;1.40;44.40;;;;;;5034172;28;20021;-63
2022/03/11 02:32:45;;;;;;;11.20;5.53;;;1.40;44.70;;;;;;5033252;28;20079;-66
2022/03/11 02:35:11;;;;;;;9.45;5.88;;;1.30;44.90;;;;;;5033330;28;20057;-62
2022/03/11 02:37:37;;;;;;;10.50;6.70;;;1.30;45.00;;;;;;5051205;28;20028;-64
2022/03/11 02:40:05;;;;;;;9.43;5.88;;;1.30;45.00;;;;;;5033015;28;20051;-62
2022/03/11 02:42:31;;;;;;;10.50;6.15;;;1.30;45.10;;;;;;5033497;28;20477;-63
2022/03/11 02:45:02;;;;;;;10.68;6.30;;;1.40;45.10;;;;;;5050624;28;20100;-63
2022/03/11 02:47:28;;;;;;;10.23;5.95;;;1.40;45.20;;;;;;5051111;28;20033;-63
2022/03/11 02:49:54;;;;;;;10.80;6.45;;;1.40;45.20;;;;;;5050294;28;20582;-64
2022/03/11 02:52:21;;;;;;;10.80;5.57;;;1.40;45.20;;;;;;5050574;28;20031;-63
2022/03/11 02:54:49;;;;;;;11.57;6.68;;;1.30;45.50;;;;;;5050737;28;20029;-68
2022/03/11 02:57:16;;;;;;;11.10;5.97;;;1.30;45.50;;;;;;5051040;28;20138;-63
2022/03/11 02:59:45;;;;;;;11.70;6.10;;;1.30;45.50;;;;;;5051241;28;20029;-63
2022/03/11 03:02:12;;;;;;;14.82;6.07;;;1.30;45.50;;;;;;5050622;28;20122;-63
2022/03/11 03:04:38;;;;;;;11.32;6.05;;;1.30;45.60;;;;;;5032747;28;20067;-62
2022/03/11 03:07:04;;;;;;;10.73;6.30;;;1.20;45.60;;;;;;5050255;28;20461;-63
2022/03/11 03:09:30;;;;;;;12.55;6.00;;;1.20;45.90;;;;;;5033210;28;20083;-64
2022/03/11 03:11:56;;;;;;;10.55;6.65;;;1.20;46.00;;;;;;5032553;28;20028;-64
2022/03/11 03:14:22;;;;;;;9.32;5.78;;;1.20;46.00;;;;;;5051428;28;20087;-64
2022/03/11 03:16:48;;;;;;;11.35;6.63;;;1.10;46.20;;;;;;5050968;28;20033;-67
2022/03/11 03:19:13;;;;;;;11.77;6.55;;;1.00;46.90;;;;;;5050359;28;20024;-63
2022/03/11 03:21:39;;;;;;;11.40;6.28;;;1.00;46.20;;;;;;5050944;28;20102;-63
2022/03/11 03:24:06;;;;;;;9.07;5.55;;;1.00;46.20;;;;;;5072223;28;20025;-63
2022/03/11 03:26:31;;;;;;;10.45;6.15;;;1.00;46.40;;;;;;5074390;28;20431;-63
2022/03/11 03:28:57;;;;;;;11.20;6.30;;;1.00;46.40;;;;;;5073905;28;20032;-63
2022/03/11 03:31:23;;;;;;;10.02;6.00;;;0.90;46.30;;;;;;5073213;28;20437;-63
2022/03/11 03:33:49;;;;;;;13.10;5.80;;;0.90;46.50;;;;;;5074538;28;20025;-67
2022/03/11 03:36:15;;;;;;;10.88;6.20;;;0.90;46.60;;;;;;5073785;28;20327;-64
2022/03/11 03:38:40;;;;;;;10.57;6.10;;;0.90;46.70;;;;;;5074311;28;20116;-63
2022/03/11 03:41:06;;;;;;;9.30;5.63;;;0.90;46.70;;;;;;5073545;28;20059;-63
2022/03/11 03:43:32;;;;;;;12.60;6.38;;;0.90;46.60;;;;;;5074186;28;20070;-63
2022/03/11 03:45:58;;;;;;;9.85;5.32;;;0.90;46.50;;;;;;5072222;28;20423;-63
2022/03/11 03:48:24;;;;;;;10.45;6.35;;;0.90;46.50;;;;;;5074070;28;20111;-63
2022/03/11 03:50:49;;;;;;;10.15;6.18;;;0.90;46.60;;;;;;5074292;28;20104;-63
2022/03/11 03:53:15;;;;;;;10.70;6.60;;;0.80;46.60;;;;;;5071976;28;20024;-63
2022/03/11 03:55:40;;;;;;;11.07;6.10;;;0.80;46.50;;;;;;5073941;28;20031;-63
2022/03/11 03:58:07;;;;;;;10.38;5.97;;;0.80;46.60;;;;;;5073242;28;20032;-63
2022/03/11 04:00:33;;;;;;;11.02;6.30;;;0.80;46.50;;;;;;5072932;28;20039;-63
2022/03/11 04:02:59;;;;;;;10.95;5.57;;;0.80;46.50;;;;;;5073606;28;20024;-64
2022/03/11 04:05:25;;;;;;;10.30;6.50;;;0.80;46.50;;;;;;5073633;28;20489;-63
2022/03/11 04:07:50;;;;;;;11.95;5.95;;;0.70;46.00;;;;;;5072704;28;20074;-64
2022/03/11 04:10:20;;;;;;;12.13;6.47;;;0.70;46.20;;;;;;5071967;28;20119;-63
2022/03/11 04:12:45;;;;;;;10.88;5.72;;;0.60;46.20;;;;;;5073380;28;20028;-64
2022/03/11 04:15:12;;;;;;;11.18;6.20;;;0.60;46.00;;;;;;5071350;28;20051;-64
2022/03/11 04:17:38;;;;;;;9.00;5.60;;;0.60;46.00;;;;;;5073121;28;20112;-64
2022/03/11 04:20:05;;;;;;;9.10;5.50;;;0.60;45.80;;;;;;5072687;28;20082;-64
2022/03/11 04:22:30;;;;;;;10.82;5.88;;;0.60;45.90;;;;;;5055326;28;20448;-64
2022/03/11 04:24:56;;;;;;;10.68;6.32;;;0.50;45.70;;;;;;5052669;28;20017;-67
2022/03/11 04:27:22;;;;;;;12.63;5.85;;;0.50;45.60;;;;;;5053181;28;20369;-64
2022/03/11 04:29:48;;;;;;;11.32;5.60;;;0.50;45.80;;;;;;5035523;28;20112;-64
2022/03/11 04:32:13;;;;;;;11.23;6.13;;;0.50;45.70;;;;;;5034718;28;20146;-63
2022/03/11 04:34:39;;;;;;;12.50;6.22;;;0.60;45.60;;;;;;5052096;28;20032;-64
2022/03/11 04:37:05;;;;;;;10.63;6.00;;;0.60;45.40;;;;;;5052798;28;20033;-64
2022/03/11 04:39:31;;;;;;;11.73;6.15;;;0.60;45.20;;;;;;5053025;28;20051;-63
2022/03/11 04:41:57;;;;;;;10.55;6.35;;;0.60;45.10;;;;;;5052527;28;20119;-66
2022/03/11 04:44:22;;;;;;;10.00;6.05;;;0.60;45.00;;;;;;5052224;28;20047;-63
2022/03/11 04:46:49;;;;;;;13.13;6.00;;;0.50;45.10;;;;;;5052665;28;20081;-63
2022/03/11 04:49:15;;;;;;;10.50;6.07;;;0.50;45.10;;;;;;5052143;28;20469;-63
2022/03/11 04:51:42;;;;;;;9.73;5.88;;;0.50;45.10;;;;;;5053025;28;20017;-63
2022/03/11 04:54:08;;;;;;;13.93;6.70;;;0.60;45.10;;;;;;5052078;28;20021;-63
2022/03/11 04:56:36;;;;;;;14.05;7.20;;;0.60;45.00;;;;;;5053256;28;20032;-63
2022/03/11 04:59:02;;;;;;;13.10;7.22;;;0.50;44.90;;;;;;5052265;28;20032;-64
2022/03/11 05:01:28;;;;;;;12.43;6.95;;;0.50;45.00;;;;;;5052318;28;20029;-64
2022/03/11 05:03:54;;;;;;;11.25;6.65;;;0.50;45.00;;;;;;5052768;28;20028;-63
2022/03/11 05:06:19;;;;;;;14.05;6.93;;;0.40;45.10;;;;;;5051875;28;20111;-63
2022/03/11 05:08:45;;;;;;;10.82;6.45;;;0.50;45.30;;;;;;5052996;28;20036;-63
2022/03/11 05:11:11;;;;;;;11.98;6.18;;;0.40;45.20;;;;;;5052022;28;20482;-63
2022/03/11 05:13:37;;;;;;;11.73;6.07;;;0.40;45.20;;;;;;5034841;28;20021;-64
2022/03/11 05:16:03;;;;;;;13.23;6.75;;;0.30;45.40;;;;;;5051946;28;20424;-63
2022/03/11 05:18:28;;;;;;;12.35;6.90;;;0.40;45.60;;;;;;5052227;28;20029;-64
2022/03/11 05:20:54;;;;;;;13.38;7.20;;;0.30;45.40;;;;;;5052139;28;20075;-63
2022/03/11 05:23:21;;;;;;;12.75;6.75;;;0.30;45.80;;;;;;5051697;28;20109;-63
2022/03/11 05:25:47;;;;;;;11.48;6.35;;;0.30;45.80;;;;;;5052598;28;20029;-63
2022/03/11 05:28:13;;;;;;;12.00;6.25;;;0.30;45.80;;;;;;5051691;28;20032;-64
2022/03/11 05:30:38;;;;;;;14.93;7.43;;;0.30;45.80;;;;;;5051982;28;20029;-63
2022/03/11 05:33:05;;;;;;;12.93;6.22;;;0.30;45.80;;;;;;5033469;28;20120;-64
2022/03/11 05:35:31;;;;;;;12.10;6.70;;;0.30;45.80;;;;;;5052070;28;20039;-63
2022/03/11 05:37:57;;;;;;;10.30;6.10;;;0.30;46.10;;;;;;5033243;28;20025;-62
2022/03/11 05:40:22;;;;;;;11.95;6.43;;;0.30;45.60;;;;;;5052933;28;20029;-63
2022/03/11 05:42:48;;;;;;;12.80;7.07;;;0.30;45.80;;;;;;5052289;28;20024;-63
2022/03/11 05:45:14;;;;;;;11.38;6.68;;;0.30;45.70;;;;;;5033104;28;20449;-62
2022/03/11 05:47:40;;;;;;;12.02;7.00;;;0.30;45.90;;;;;;5051264;28;20029;-62
2022/03/11 05:50:06;;;;;;;15.18;7.00;;;0.30;45.90;;;;;;5050728;28;20052;-63
2022/03/11 05:52:39;;;;;;;15.27;7.53;;;0.40;45.70;;;;;;5033978;28;20359;-62
2022/03/11 05:55:06;;;;;;;19.08;7.70;;;0.50;45.70;;;;;;5032763;28;20021;-63
2022/03/11 05:57:32;;;;;;;10.18;6.30;;;0.50;45.50;;;;;;5051836;28;20029;-62
2022/03/11 05:59:57;;;;;;;14.68;7.93;;;0.50;45.20;;;;;;5033577;28;20032;-62
2022/03/11 06:02:23;;;;;;;11.73;6.85;;;0.50;45.30;;;;;;5050744;28;20449;-62
2022/03/11 06:04:49;;;;;;;16.17;7.75;;;0.50;45.20;;;;;;5033646;28;20455;-61
2022/03/11 06:07:15;;;;;;;15.88;7.32;;;0.60;45.10;;;;;;5050926;28;20108;-63
2022/03/11 06:09:40;;;;;;;15.60;7.10;;;0.50;45.20;;;;;;5051256;28;20488;-63
2022/03/11 06:12:07;;;;;;;13.57;6.80;;;0.50;45.30;;;;;;5032735;28;20099;-64
2022/03/11 06:14:32;;;;;;;13.57;6.53;;;0.60;45.20;;;;;;5051315;28;20021;-62
2022/03/11 06:16:58;;;;;;;13.63;7.30;;;0.60;45.00;;;;;;5051215;28;20029;-62
2022/03/11 06:19:24;;;;;;;10.98;6.38;;;0.50;44.90;;;;;;5032803;28;20449;-63
2022/03/11 06:21:50;;;;;;;15.93;7.18;;;0.50;45.10;;;;;;5051384;28;20072;-62
2022/03/11 06:24:16;;;;;;;14.05;7.32;;;0.50;45.10;;;;;;5051138;28;20060;-62
2022/03/11 06:26:42;;;;;;;14.10;6.70;;;0.50;44.80;;;;;;5033183;28;20120;-61
2022/03/11 06:29:10;;;;;;;12.85;7.28;;;0.50;45.00;;;;;;5050549;28;20032;-62
2022/03/11 06:31:36;;;;;;;14.85;7.65;;;0.60;45.00;;;;;;5051007;28;20032;-61
2022/03/11 06:34:02;;;;;;;14.88;7.07;;;0.60;44.90;;;;;;5033481;28;20025;-62
2022/03/11 06:36:28;;;;;;;13.77;6.68;;;0.70;45.00;;;;;;5050315;28;20417;-63
2022/03/11 06:38:55;;;;;;;9.88;6.47;;;0.80;44.70;;;;;;5033662;28;20024;-63
2022/03/11 06:41:21;;;;;;;13.90;7.72;;;0.80;44.40;;;;;;5050467;28;20020;-63
2022/03/11 06:43:47;;;;;;;12.75;7.03;;;0.90;44.30;;;;;;5050983;28;20033;-62
2022/03/11 06:46:13;;;;;;;15.65;7.15;;;0.90;44.00;;;;;;5032028;28;20029;-62
2022/03/11 06:48:38;;;;;;;12.30;6.68;;;1.00;43.90;;;;;;5050959;28;20115;-62
2022/03/11 06:51:05;;;;;;;14.60;7.63;;;1.00;43.90;;;;;;5032888;28;20032;-67
2022/03/11 06:53:33;;;;;;;16.58;7.40;;;1.10;43.70;;;;;;5050686;28;20037;-61
2022/03/11 06:56:00;;;;;;;13.50;7.45;;;1.10;43.60;;;;;;5051074;28;20025;-62
2022/03/11 06:58:30;;;;;;;13.52;6.13;;;1.10;43.40;;;;;;5051334;28;20037;-63
2022/03/11 07:00:56;;;;;;;15.07;6.50;;;1.10;43.00;;;;;;5054524;28;20028;-61
2022/03/11 07:03:22;;;;;;;14.07;7.10;;;1.10;42.70;;;;;;5035595;28;20058;-62
2022/03/11 07:05:47;;;;;;;14.88;7.13;;;1.20;42.60;;;;;;5055027;28;20033;-62
2022/03/11 07:08:14;;;;;;;11.23;6.47;;;1.30;42.70;;;;;;5054242;28;20029;-63
2022/03/11 07:10:40;;;;;;;11.18;7.55;;;1.40;42.10;;;;;;5036371;28;20033;-61
2022/03/11 07:13:06;;;;;;;13.15;7.57;;;1.60;42.10;;;;;;5054584;28;20021;-62
2022/03/11 07:15:32;;;;;;;17.77;9.10;;;3.90;40.20;;;;;;5035920;28;20039;-63
2022/03/11 07:17:58;;;;;;;19.80;9.23;;;6.70;36.30;;;;;;5054767;28;20025;-62
2022/03/11 07:20:24;;;;;;;13.98;9.70;;;9.00;33.00;;;;;;5035829;28;20040;-62
2022/03/11 07:22:51;;;;;;;18.60;9.60;;;10.70;29.70;;;;;;5036603;28;20029;-62
2022/03/11 07:25:17;;;;;;;14.35;9.90;;;12.40;27.90;;;;;;5035817;28;20116;-62
2022/03/11 07:27:45;;;;;;;15.20;10.18;;;13.90;27.20;;;;;;5054007;28;20029;-61
2022/03/11 07:30:11;;;;;;;15.48;9.40;;;15.00;25.00;;;;;;5053968;28;20036;-65
2022/03/11 07:32:41;;;;;;;12.30;9.30;;;15.50;24.70;;;;;;5054273;28;20033;-63
2022/03/11 07:35:12;;;;;;;12.15;9.70;;;16.00;23.60;;;;;;5054225;28;20021;-62
2022/03/11 07:37:40;;;;;;;10.68;9.05;;;16.80;23.20;;;;;;5054485;28;20072;-62
2022/03/11 07:40:08;;;;;;;13.13;9.32;;;17.00;22.80;;;;;;5054058;28;20100;-61
2022/03/11 07:42:34;;;;;;;9.65;8.18;;;17.00;22.80;;;;;;5034601;28;20433;-62
2022/03/11 07:45:00;;;;;;;10.52;8.98;;;16.90;22.30;;;;;;5053628;28;20520;-63
2022/03/11 07:47:26;;;;;;;15.07;9.57;;;17.30;22.20;;;;;;5052731;28;20029;-61
2022/03/11 07:49:52;;;;;;;15.50;12.13;;;17.50;21.60;;;;;;5052099;28;20033;-62
2022/03/11 07:52:18;;;;;;;13.05;9.68;;;17.60;21.80;;;;;;5052295;28;20408;-61
2022/03/11 07:54:44;;;;;;;13.02;10.23;;;18.60;21.80;;;;;;5053447;28;20668;-61
2022/03/11 07:57:10;;;;;;;16.30;11.70;;;19.30;21.10;;;;;;5053352;28;20142;-64
2022/03/11 07:59:37;;;;;;;15.43;9.48;;;19.80;20.80;;;;;;5053432;28;20021;-61
2022/03/11 08:02:03;;;;;;;12.15;9.00;;;19.70;20.20;;;;;;5052494;28;20130;-62
2022/03/11 08:04:29;;;;;;;15.60;10.00;;;19.80;20.30;;;;;;5032714;28;20155;-62
2022/03/11 08:06:56;;;;;;;15.02;9.32;;;19.80;20.30;;;;;;5053646;28;20104;-61
2022/03/11 08:09:21;;;;;;;16.83;10.77;;;19.60;20.10;;;;;;5051529;28;20472;-62
2022/03/11 08:11:47;;;;;;;19.52;12.95;;;20.10;21.00;;;;;;5053490;28;20100;-61
2022/03/11 08:14:13;;;;;;;10.60;8.32;;;21.10;20.10;;;;;;5034646;28;20060;-66
2022/03/11 08:16:40;;;;;;;12.23;9.18;;;21.00;19.50;;;;;;5034528;28;20033;-61
2022/03/11 08:19:24;;;;;;;15.45;10.05;;;20.20;19.50;;;;;;5035483;28;20027;-61
2022/03/11 08:21:51;;;;;;;;;;;19.70;19.50;;;;;;5052510;28;20063;-64
2022/03/11 08:24:17;;;;;;;12.95;9.05;;;18.90;19.90;;;;;;5049628;28;20349;-63
2022/03/11 08:26:43;;;;;;;11.35;8.27;;;18.90;20.20;;;;;;5050668;28;20036;-62
2022/03/11 08:29:09;;;;;;;13.20;8.70;;;19.20;20.00;;;;;;5051310;28;20068;-61
2022/03/11 08:31:35;;;;;;;11.60;8.40;;;19.00;19.90;;;;;;5032201;28;20267;-64
2022/03/11 08:34:01;;;;;;;14.15;8.93;;;18.80;20.10;;;;;;5051394;28;20377;-64
2022/03/11 08:36:26;;;;;;;11.98;7.47;;;17.40;20.10;;;;;;5033241;28;20151;-61
2022/03/11 08:38:52;;;;;;;10.43;6.93;;;15.00;21.20;;;;;;5051619;28;20400;-62
2022/03/11 08:41:19;;;;;;;17.77;7.60;;;12.80;22.60;;;;;;5031900;28;20033;-65
2022/03/11 08:43:49;;;;;;;14.48;8.18;;;10.90;24.20;;;;;;5032580;28;20029;-60
2022/03/11 08:46:15;;;;;;;14.13;7.40;;;9.60;25.60;;;;;;5033064;28;20117;-66
2022/03/11 08:48:43;;;;;;;15.55;7.97;;;8.80;26.50;;;;;;5033069;28;20040;-63
2022/03/11 08:51:10;;;;;;;11.55;7.43;;;8.00;27.20;;;;;;5051921;28;20021;-65
2022/03/11 08:53:38;;;;;;;16.55;8.75;;;7.20;28.00;;;;;;5033530;28;20025;-60
2022/03/11 08:56:04;;;;;;;15.20;8.00;;;7.00;28.50;;;;;;5049235;28;20033;-66
2022/03/11 08:58:30;;;;;;;10.93;7.03;;;6.80;28.70;;;;;;5033081;28;20120;-63
2022/03/11 09:00:56;;;;;;;13.23;7.40;;;6.50;29.20;;;;;;5048609;28;20473;-60
2022/03/11 09:03:22;;;;;;;13.75;7.82;;;6.00;29.70;;;;;;5048633;28;20051;-63
2022/03/11 09:05:48;;;;;;;12.80;7.30;;;5.60;30.20;;;;;;5050273;28;20072;-61
2022/03/11 09:08:14;;;;;;;16.05;7.57;;;5.40;31.10;;;;;;5051628;28;20033;-61
2022/03/11 09:10:40;;;;;;;17.48;7.45;;;5.20;31.50;;;;;;5051389;28;20107;-62
2022/03/11 09:13:06;;;;;;;13.63;7.47;;;5.00;31.70;;;;;;5051104;28;20048;-60
2022/03/11 09:15:32;;;;;;;14.35;7.78;;;4.80;32.30;;;;;;5050358;28;20028;-61
2022/03/11 09:17:58;;;;;;;14.73;7.05;;;4.80;32.40;;;;;;5034013;28;20037;-62
2022/03/11 09:20:43;;;;;;;15.07;7.60;;;4.90;32.20;;;;;;5032585;28;20033;-65
2022/03/11 09:23:10;;;;;;;12.27;6.75;;;5.00;32.40;;;;;;5034331;28;20037;-66
2022/03/11 09:25:37;;;;;;;14.63;7.28;;;5.00;32.40;;;;;;5032961;28;20029;-63
2022/03/11 09:28:04;;;;;;;16.70;7.40;;;5.00;32.60;;;;;;5051713;28;20029;-63
2022/03/11 09:30:30;;;;;;;12.18;7.65;;;5.00;32.70;;;;;;5050823;28;20295;-64
2022/03/11 09:32:55;;;;;;;10.70;7.22;;;4.90;32.50;;;;;;5051117;28;20025;-65
2022/03/11 09:35:21;;;;;;;13.30;7.80;;;4.70;33.60;;;;;;5050701;28;20033;-63
2022/03/11 09:37:47;;;;;;;13.50;7.32;;;4.50;33.40;;;;;;5017264;28;20029;-63
2022/03/11 09:40:14;;;;;;;12.63;7.28;;;4.50;33.30;;;;;;5050460;28;20040;-65
2022/03/11 09:42:41;;;;;;;18.88;7.57;;;4.70;33.00;;;;;;5051755;28;20017;-64
2022/03/11 09:45:08;;;;;;;12.23;7.13;;;4.40;33.00;;;;;;5051277;28;20430;-63
2022/03/11 09:47:34;;;;;;;12.15;7.05;;;4.40;33.10;;;;;;5050527;28;20441;-64
2022/03/11 09:50:00;;;;;;;10.05;6.85;;;4.50;33.10;;;;;;5033586;28;20087;-63
2022/03/11 09:52:26;;;;;;;13.88;7.13;;;4.50;32.80;;;;;;5050334;28;20535;-64
2022/03/11 09:54:52;;;;;;;11.15;6.53;;;4.50;32.80;;;;;;5051247;28;20489;-63
2022/03/11 09:57:22;;;;;;;11.50;6.90;;;4.50;32.50;;;;;;5030125;28;20041;-68
2022/03/11 09:59:50;;;;;;;12.85;7.28;;;4.50;32.60;;;;;;5030990;28;20470;-63
2022/03/11 10:02:17;;;;;;;11.68;6.30;;;4.50;32.60;;;;;;5050372;28;20025;-62
2022/03/11 10:04:47;;;;;;;14.82;7.63;;;4.30;32.70;;;;;;5046724;28;20033;-62
2022/03/11 10:07:22;;;;;;;11.13;7.13;;;4.40;32.80;;;;;;5048372;28;20033;-66
2022/03/11 10:09:48;;;;;;;13.20;7.40;;;4.50;32.60;;;;;;5048862;28;20035;-61
2022/03/11 10:12:32;;;;;;;15.65;6.88;;;4.60;32.40;;;;;;5041531;28;20442;-64
2022/03/11 10:15:00;;;;;;;20.13;6.82;;;4.60;32.60;;;;;;5051309;28;20104;-63
2022/03/11 10:17:27;;;;;;;11.07;6.90;;;4.60;32.20;;;;;;5048273;28;20703;-62
2022/03/11 10:20:02;;;;;;;12.90;6.88;;;4.80;32.30;;;;;;5032345;28;20055;-63
2022/03/11 10:22:29;;;;;;;11.82;7.20;;;4.80;31.80;;;;;;5057432;28;20068;-62
2022/03/11 10:24:55;;;;;;;15.20;7.57;;;4.80;31.90;;;;;;5059685;28;20025;-63
2022/03/11 10:27:23;;;;;;;11.65;6.93;;;4.90;31.70;;;;;;5066029;28;20081;-61
2022/03/11 10:29:51;;;;;;;11.10;7.18;;;4.80;31.30;;;;;;5069039;28;20113;-60
2022/03/11 10:32:23;;;;;;;13.77;6.90;;;5.00;31.30;;;;;;5067359;28;20475;-61
2022/03/11 10:34:49;;;;;;;15.05;7.10;;;5.00;31.40;;;;;;5072478;28;20108;-62
2022/03/11 10:37:16;;;;;;;10.15;6.68;;;4.90;31.20;;;;;;5072258;28;20119;-64
2022/03/11 10:39:47;;;;;;;18.02;7.20;;;4.90;31.40;;;;;;5073014;28;20039;-61
2022/03/11 10:42:15;;;;;;;9.55;6.57;;;5.00;31.20;;;;;;5075287;28;20035;-63
2022/03/11 10:45:00;;;;;;;11.82;7.30;;;5.00;31.30;;;;;;5073021;28;20074;-61
2022/03/11 10:47:33;;;;;;;13.80;7.80;;;5.10;31.40;;;;;;5072507;28;20028;-61
2022/03/11 10:50:01;;;;;;;;;;;5.40;31.40;;;;;;5074747;28;20024;-61
2022/03/11 10:52:34;;;;;;;10.35;6.55;;;5.60;30.80;;;;;;5073146;28;19907;-62
2022/03/11 10:55:16;;;;;;;14.25;7.28;;;5.50;30.30;;;;;;5073472;28;20090;-63
2022/03/11 10:57:42;;;;;;;14.45;6.50;;;5.50;30.60;;;;;;5073756;28;20086;-63
2022/03/11 11:00:17;;;;;;;11.32;6.70;;;5.40;30.50;;;;;;5074456;28;20123;-61
2022/03/11 11:02:44;;;;;;;13.80;7.28;;;5.30;30.40;;;;;;5073386;28;20117;-61
2022/03/11 11:05:13;;;;;;;9.57;5.90;;;5.30;30.50;;;;;;5071304;28;20086;-63
2022/03/11 11:07:41;;;;;;;14.35;7.15;;;5.40;30.50;;;;;;5071292;28;20047;-60
2022/03/11 11:10:08;;;;;;;11.70;6.32;;;5.60;30.20;;;;;;5073094;28;20036;-62
2022/03/11 11:12:34;;;;;;;10.85;6.85;;;5.80;29.90;;;;;;5068316;28;20043;-63
2022/03/11 11:14:59;;;;;;;11.75;6.35;;;5.90;29.80;;;;;;5070226;28;20020;-61
2022/03/11 11:17:28;;;;;;;11.15;6.57;;;6.00;29.60;;;;;;5071582;28;20473;-62
2022/03/11 11:19:57;;;;;;;11.10;6.20;;;6.00;29.30;;;;;;5072390;28;20017;-62
2022/03/11 11:22:26;;;;;;;10.93;6.40;;;6.00;29.60;;;;;;5064580;28;20040;-61
2022/03/11 11:24:55;;;;;;;8.90;5.95;;;6.20;29.70;;;;;;5072395;28;20107;-61
2022/03/11 11:27:22;;;;;;;15.80;6.18;;;6.10;29.90;;;;;;5062908;28;20621;-63
2022/03/11 11:29:50;;;;;;;11.68;6.90;;;6.10;29.50;;;;;;5056571;28;20214;-62
2022/03/11 11:32:18;;;;;;;10.80;6.63;;;6.20;29.40;;;;;;5061519;28;20036;-62
2022/03/11 11:34:44;;;;;;;10.77;6.07;;;6.30;29.40;;;;;;5055507;28;20020;-62
2022/03/11 11:37:38;;;;;;;15.20;6.85;;;6.40;29.10;;;;;;5062710;28;20057;-61
2022/03/11 11:40:17;;;;;;;13.00;6.40;;;6.20;29.10;;;;;;5069264;28;20063;-62
2022/03/11 11:43:12;;;;;;;9.85;5.78;;;6.10;29.00;;;;;;5068429;28;20024;-62
2022/03/11 11:45:49;;;;;;;11.98;7.72;;;6.20;29.00;;;;;;5068208;28;20133;-61
2022/03/11 11:48:33;;;;;;;11.32;6.28;;;6.40;29.10;;;;;;5063122;28;20432;-62
2022/03/11 11:51:04;;;;;;;10.82;6.53;;;6.70;28.90;;;;;;5072638;28;20047;-62
2022/03/11 11:53:48;;;;;;;10.63;6.20;;;6.90;28.60;;;;;;5067667;28;20044;-61
2022/03/11 11:56:34;;;;;;;13.27;6.35;;;6.80;28.20;;;;;;5068646;28;20032;-64
2022/03/11 11:59:02;;;;;;;10.27;6.60;;;6.80;28.40;;;;;;5070497;28;20553;-65
2022/03/11 12:01:43;;;;;;;8.40;5.93;;;6.80;28.50;;;;;;5072669;28;20103;-64
2022/03/11 12:04:24;;;;;;;11.25;6.63;;;6.80;28.50;;;;;;5072548;28;20026;-65
2022/03/11 12:06:59;;;;;;;11.25;6.45;;;6.80;28.60;;;;;;5068269;28;20659;-64
2022/03/11 12:09:40;;;;;;;14.32;6.07;;;6.90;28.50;;;;;;5067192;28;20024;-63
2022/03/11 12:12:32;;;;;;;10.93;6.45;;;7.10;29.30;;;;;;5068404;28;20056;-63
2022/03/11 12:15:01;;;;;;;13.65;6.20;;;7.20;28.60;;;;;;5066720;28;20036;-62
2022/03/11 12:17:46;;;;;;;8.57;5.88;;;7.30;28.50;;;;;;5070312;28;20047;-64
2022/03/11 12:22:57;;;;;;;;;;;7.40;28.00;;;;;;5066741;28;20052;-64
2022/03/11 12:25:30;;;;;;;12.32;6.70;;;7.50;27.90;;;;;;5066583;28;19915;-64
2022/03/11 12:28:01;;;;;;;12.95;7.25;;;7.60;28.00;;;;;;5063190;28;20029;-69
2022/03/11 12:30:33;;;;;;;14.68;7.10;;;7.70;27.90;;;;;;5065927;28;20028;-67
2022/03/11 12:33:10;;;;;;;10.23;6.50;;;7.80;27.80;;;;;;5066156;28;20056;-69
2022/03/11 12:35:37;;;;;;;9.73;6.07;;;7.90;27.70;;;;;;5065834;28;20027;-64
2022/03/11 12:38:04;;;;;;;10.68;7.20;;;7.90;27.60;;;;;;5068355;28;20032;-64
2022/03/11 12:40:31;;;;;;;9.60;6.15;;;7.90;27.70;;;;;;5066521;28;20094;-70
2022/03/11 12:43:03;;;;;;;9.80;6.15;;;8.00;27.10;;;;;;5067666;28;20052;-69
2022/03/11 12:45:41;;;;;;;11.75;6.45;;;7.80;27.00;;;;;;5067183;28;20384;-69
2022/03/11 12:48:10;;;;;;;9.13;6.30;;;7.60;27.30;;;;;;5069963;28;20028;-73
2022/03/11 12:50:37;;;;;;;9.50;6.47;;;8.00;26.70;;;;;;5066741;28;20086;-74
2022/03/11 12:53:06;;;;;;;10.02;6.68;;;8.40;26.80;;;;;;5069176;28;20477;-66
2022/03/11 12:55:33;;;;;;;11.68;7.40;;;8.80;26.40;;;;;;5066611;28;20123;-66